Latest Coastal Weather Observations for Coffs Harbour Airport

IDN60701

Issued at 1:41 pm EST Friday 24 May 2019 (issued every 10 minutes, with the page automatically refreshed every 10 minutes)

About coastal observations | Map of coastal stations | Coastal observations for NSW | Marine services | Other Formats
Station Details ID: 059151 Name: COFFS HARBOUR AIRPORT Lat: -30.32 Lon: 153.12 Height: 3.5 m
Data from the previous 72 hours. | See also: Recent months at Coffs Harbour Airport
Date/Time
EST
Wind Sea
Height
m
Swell Vis
km
Cloud Weather Temp
°C
Press
hPa
Rain since
9am
mm
Dir  Spd
kts
Gust
kts
Height
m
Period
s
Dir
24/01:30pm E 8 10 - - - - 10 Clear - 22.6 1021.9 0.0
24/01:00pm ENE 8 10 - - - - 10 - - 22.4 1022.4 0.0
24/12:30pm E 9 12 - - - - 10 - - 22.7 1022.7 0.0
24/12:00pm ENE 7 10 - - - - 10 - - 22.9 1023.1 0.0
24/11:30am ENE 8 10 - - - - 10 - - 23.0 1023.7 0.0
24/11:00am NE 5 9 - - - - 10 - - 22.8 1024.2 0.0
24/10:30am NE 3 6 - - - - 10 - - 22.6 1024.7 0.0
24/10:00am ESE 5 6 - - - - 10 - - 21.4 1025.0 0.0
24/09:30am SW 2 4 - - - - 10 - - 20.3 1025.1 0.0
24/09:00am W 5 6 - - - - 10 Mostly clear - 18.3 1025.2 0.0
24/08:30am WNW 4 5 - - - - 10 Partly cloudy - 16.3 1025.1 0.0
24/08:00am WNW 4 5 - - - - 10 - - 14.0 1024.9 0.0
24/07:30am W 1 3 - - - - 10 - - 12.7 1025.0 0.0
24/07:00am WSW 3 4 - - - - 10 Partly cloudy - 12.3 1024.9 0.0
24/06:43am WSW 3 4 - - - - 10 Partly cloudy - 11.7 1024.7 0.0
24/06:30am WNW 3 4 - - - - 5 Partly cloudy - 12.3 1024.7 0.0
24/06:24am NW 4 5 - - - - 5 Partly cloudy - 12.3 1024.6 0.0
24/06:12am WNW 4 5 - - - - 10 - - 12.7 1024.6 0.0
24/06:00am WSW 4 5 - - - - 5 - - 12.5 1024.6 0.0
24/05:57am SW 4 5 - - - - 6 - - 12.6 1024.6 0.0
24/05:54am SW 5 6 - - - - 10 - - 12.7 1024.5 0.0
24/05:30am WNW 1 2 - - - - 1 - - 12.8 1024.3 0.0
24/05:06am W 4 4 - - - - 5 Partly cloudy - 13.2 1024.1 0.0
24/05:00am W 4 4 - - - - 10 Partly cloudy - 13.5 1024.1 0.0
24/04:50am W 2 4 - - - - 10 Partly cloudy - 13.5 1024.1 0.0
24/04:36am CALM 0 0 - - - - 6 Partly cloudy - 13.0 1024.0 0.0
24/04:30am CALM 0 0 - - - - 9 Cloudy - 13.3 1023.9 0.0
24/04:03am W 2 4 - - - - 10 Cloudy - 13.7 1023.9 0.0
24/04:00am W 1 4 - - - - 10 Cloudy - 13.6 1023.9 0.0
24/03:36am CALM 0 0 - - - - 5 Cloudy - 13.4 1023.8 0.0
24/03:32am CALM 0 0 - - - - 10 Cloudy - 13.8 1023.9 0.0
24/03:30am CALM 0 0 - - - - 10 Cloudy - 13.6 1023.9 0.0
24/03:05am CALM 0 0 - - - - 4 Partly cloudy - 13.2 1024.0 0.0
24/03:00am CALM 0 2 - - - - 10 - - 13.6 1024.1 0.0
24/02:30am NNW 4 4 - - - - 10 Partly cloudy - 14.0 1024.2 0.0
24/02:00am CALM 0 0 - - - - 10 Cloudy - 14.1 1024.6 0.0
24/01:30am CALM 0 3 - - - - 10 Cloudy - 14.4 1024.8 0.0
24/01:00am CALM 0 2 - - - - 10 Cloudy - 14.7 1025.1 0.0
24/12:30am WNW 3 5 - - - - 10 Cloudy - 14.4 1025.3 0.0
24/12:00am WNW 3 5 - - - - 10 Mostly cloudy - 14.9 1025.7 0.0
 
Date/Time
EST
Wind Sea
Height
m
Swell Vis
km
Cloud Weather Temp
°C
Press
hPa
Rain since
9am
mm
Dir  Spd
kts
Gust
kts
Height
m
Period
s
Dir
23/11:30pm CALM 0 0 - - - - 8 - - 15.1 1026.0 0.0
23/11:00pm CALM 0 0 - - - - 10 Partly cloudy - 15.9 1026.1 0.0
23/10:30pm N 7 10 - - - - 10 Partly cloudy - 16.6 1026.2 0.0
23/10:00pm NW 4 5 - - - - 10 Cloudy - 16.5 1026.3 0.0
23/09:30pm WNW 4 5 - - - - 10 Cloudy - 16.4 1026.4 0.0
23/09:00pm WNW 3 4 - - - - 10 Cloudy - 16.7 1026.3 0.0
23/08:30pm WNW 3 4 - - - - 10 Cloudy - 16.6 1026.3 0.0
23/08:00pm CALM 0 0 - - - - 10 Cloudy - 17.2 1026.4 0.0
23/07:30pm NW 4 5 - - - - 10 Cloudy - 17.4 1026.2 0.0
23/07:00pm NW 4 4 - - - - 10 Cloudy - 17.4 1026.2 0.0
23/06:30pm NNW 3 4 - - - - 10 Cloudy - 17.5 1026.2 0.0
23/06:00pm CALM 0 0 - - - - 10 Cloudy - 17.8 1026.1 0.0
23/05:30pm NNW 1 4 - - - - 10 Cloudy - 18.3 1025.9 0.0
23/05:00pm N 4 5 - - - - 10 Cloudy - 19.0 1025.7 0.0
23/04:30pm NNW 4 5 - - - - 10 Cloudy - 19.1 1025.4 0.0
23/04:00pm NNE 4 5 - - - - 10 Cloudy - 19.0 1025.6 0.0
23/03:30pm NNE 5 6 - - - - 10 Partly cloudy - 19.3 1025.7 0.0
23/03:00pm NE 9 12 - - - - 10 Cloudy Showers 19.3 1025.7 0.0
23/02:30pm SSE 5 7 - - - - 10 Partly cloudy - 21.1 1025.6 0.0
23/02:00pm S 6 6 - - - - 10 Partly cloudy - 21.3 1025.6 0.0
23/01:30pm S 5 6 - - - - 10 Cloudy - 21.4 1025.7 0.0
23/01:00pm SSE 5 7 - - - - 10 Partly cloudy - 21.2 1026.1 0.0
23/12:30pm SSE 7 8 - - - - 10 Partly cloudy - 21.3 1026.3 0.0
23/12:00pm S 7 9 - - - - 10 Mostly clear - 22.4 1026.7 0.0
23/11:30am S 7 9 - - - - 10 Partly cloudy - 22.5 1027.2 0.0
23/11:00am S 7 8 - - - - 10 - - 22.5 1027.5 0.0
23/10:30am SW 6 9 - - - - 10 - - 22.3 1027.7 0.0
23/10:00am SW 7 8 - - - - 10 - - 21.5 1027.8 0.0
23/09:30am WSW 6 8 - - - - 10 - - 20.1 1027.9 0.0
23/09:00am WSW 5 7 - - - - 10 - - 18.5 1027.9 0.0
23/08:30am WNW 4 5 - - - - 10 - - 16.4 1027.8 0.0
23/08:00am WSW 2 4 - - - - 10 - - 14.7 1027.8 0.0
23/07:30am CALM 0 0 - - - - 10 - - 13.1 1027.7 0.0
23/07:24am CALM 0 0 - - - - 10 - - 12.6 1027.7 0.0
23/07:00am CALM 0 0 - - - - 2 - - 10.9 1027.4 0.0
23/06:34am WSW 2 4 - - - - 1 - - 10.9 1027.1 0.0
23/06:31am WSW 3 4 - - - - 0.9 - - 11.0 1027.0 0.0
23/06:30am WSW 3 4 - - - - 1 - - 10.9 1027.0 0.0
23/06:15am WSW 4 4 - - - - 1 - - 10.6 1026.9 0.0
23/06:02am WSW 4 4 - - - - 0.9 - - 11.0 1026.8 0.0
23/06:00am WSW 4 5 - - - - 1 - - 11.2 1026.8 0.0
23/05:48am W 1 5 - - - - 1 Partly cloudy - 11.0 1026.7 0.0
23/05:34am CALM 0 0 - - - - 0.9 Partly cloudy - 11.1 1026.6 0.0
23/05:30am CALM 0 0 - - - - 1 Partly cloudy - 11.2 1026.6 0.0
23/05:00am W 4 4 - - - - 2 Partly cloudy - 11.5 1026.6 0.0
23/04:30am W 4 4 - - - - 4 Partly cloudy - 12.1 1026.3 0.0
23/04:00am W 4 5 - - - - 3 - - 12.2 1026.3 0.0
23/03:55am W 4 5 - - - - 6 Partly cloudy - 12.4 1026.3 0.0
23/03:30am W 4 5 - - - - 10 Partly cloudy - 12.4 1026.3 0.0
23/03:28am W 4 5 - - - - 10 - - 12.5 1026.3 0.0
23/03:09am W 4 5 - - - - 5 - - 12.3 1026.4 0.0
23/03:00am W 4 4 - - - - 10 - - 12.6 1026.4 0.0
23/02:30am NW 3 4 - - - - 10 - - 12.6 1026.5 0.0
23/02:00am NW 5 5 - - - - 10 - - 13.5 1026.6 0.0
23/01:30am WNW 5 6 - - - - 10 - - 13.5 1026.6 0.0
23/01:00am WNW 6 7 - - - - 10 - - 13.3 1026.7 0.0
23/12:30am NW 3 4 - - - - 10 - - 13.3 1027.0 0.0
23/12:00am WNW 5 5 - - - - 10 Mostly clear - 13.6 1027.1 0.0
 
Date/Time
EST
Wind Sea
Height
m
Swell Vis
km
Cloud Weather Temp
°C
Press
hPa
Rain since
9am
mm
Dir  Spd
kts
Gust
kts
Height
m
Period
s
Dir
22/11:30pm NW 4 4 - - - - 10 Partly cloudy - 13.1 1027.2 0.0
22/11:00pm NW 5 6 - - - - 10 - - 14.3 1027.3 0.0
22/10:30pm NW 4 5 - - - - 10 - - 14.7 1027.5 0.0
22/10:00pm WNW 4 5 - - - - 10 - - 15.6 1027.7 0.0
22/09:30pm NW 5 6 - - - - 10 - - 14.9 1027.6 0.0
22/09:00pm NW 4 5 - - - - 10 - - 14.1 1027.6 0.0
22/08:30pm NW 4 5 - - - - 10 - - 14.1 1027.5 0.0
22/08:00pm NW 2 4 - - - - 10 - - 14.9 1027.3 0.0
22/07:30pm NW 4 5 - - - - 10 - - 15.2 1027.2 0.0
22/07:00pm NW 4 5 - - - - 10 - - 16.1 1027.1 0.0
22/06:30pm NW 5 5 - - - - 10 - - 16.1 1026.8 0.0
22/06:00pm N 3 5 - - - - 10 - - 17.4 1026.7 0.0
22/05:30pm N 6 7 - - - - 10 - - 19.5 1026.6 0.0
22/05:00pm NNE 7 8 - - - - 10 - - 20.5 1026.4 0.0
22/04:30pm NNE 7 10 - - - - 10 - - 21.5 1026.2 0.0
22/04:00pm NE 7 10 - - - - 10 - - 22.4 1026.2 0.0
22/03:30pm ENE 7 9 - - - - 10 - - 23.1 1026.2 0.0
22/03:00pm ENE 7 8 - - - - 10 - - 23.5 1026.1 0.0
22/02:30pm NE 8 9 - - - - 10 Partly cloudy - 23.7 1026.1 0.0
22/02:00pm NE 7 9 - - - - 10 - - 23.7 1026.2 0.0
22/01:30pm ENE 7 9 - - - - 10 - - 24.0 1026.3 0.0
22/01:00pm E 7 9 - - - - 10 - - 23.7 1026.6 0.0
22/12:30pm ESE 7 9 - - - - 10 - - 22.9 1026.9 0.0
22/12:00pm SE 7 8 - - - - 10 - - 22.4 1027.2 0.0
22/11:30am SE 7 8 - - - - 10 - - 22.7 1027.6 0.0
22/11:00am SE 7 9 - - - - 10 - - 22.2 1027.9 0.0
22/10:30am E 4 7 - - - - 10 - - 22.7 1028.2 0.0
22/10:00am WNW 5 6 - - - - 10 - - 22.8 1028.5 0.0
22/09:30am WNW 7 9 - - - - 10 - - 21.5 1028.6 0.0
22/09:00am NW 7 10 - - - - 10 - - 20.6 1028.5 0.0
22/08:30am W 4 5 - - - - 10 - - 18.4 1028.3 0.0
22/08:00am WNW 3 4 - - - - 10 - - 15.6 1028.2 0.0
22/07:30am NW 4 4 - - - - 10 - - 14.0 1027.9 0.0
22/07:07am NNW 1 3 - - - - 10 - - 12.2 1027.8 0.0
22/07:00am NNW 3 4 - - - - 8 - - 11.7 1027.7 0.0
22/06:44am NNW 3 4 - - - - 6 - - 11.4 1027.4 0.0
22/06:35am NNW 3 4 - - - - 8 - - 11.8 1027.3 0.0
22/06:30am NNW 3 4 - - - - 9 - - 11.7 1027.2 0.0
22/06:15am NNW 4 5 - - - - 5 - - 11.6 1027.1 0.0
22/06:07am NNW 3 4 - - - - 9 Partly cloudy - 11.8 1027.0 0.0
22/06:00am NNW 4 4 - - - - 10 Mostly clear - 11.9 1027.0 0.0
22/05:33am NNW 3 4 - - - - 5 Partly cloudy - 12.2 1026.7 0.0
22/05:30am NNW 3 4 - - - - 10 Partly cloudy - 12.5 1026.7 0.0
22/05:00am CALM 0 0 - - - - 1 Partly cloudy - 12.1 1026.6 0.0
22/04:59am CALM 0 0 - - - - 1 Partly cloudy - 12.2 1026.6 0.0
22/04:37am CALM 0 1 - - - - 0.8 Partly cloudy - 12.3 1026.4 0.0
22/04:30am CALM 0 0 - - - - 3 Partly cloudy - 12.5 1026.4 0.0
22/04:16am CALM 0 0 - - - - 6 - - 12.2 1026.3 0.0
22/04:00am CALM 0 0 - - - - 8 Partly cloudy - 12.3 1026.3 0.0
22/03:50am CALM 0 0 - - - - 10 Partly cloudy - 12.3 1026.4 0.0
22/03:31am CALM 0 0 - - - - 6 - - 12.9 1026.4 0.0
22/03:30am CALM 0 0 - - - - 10 - - 12.9 1026.4 0.0
22/03:00am N 3 5 - - - - 10 Mostly clear - 13.7 1026.5 0.0
22/02:30am CALM 0 0 - - - - 10 - - 14.6 1026.4 0.0
22/02:00am NNW 4 5 - - - - 10 - - 16.1 1026.3 0.0
22/01:30am NNW 5 6 - - - - 10 - - 16.1 1026.4 0.0
22/01:00am NNW 9 11 - - - - 10 - - 17.1 1026.5 0.0
22/12:30am NW 9 10 - - - - 10 - - 17.0 1026.7 0.0
22/12:00am NW 5 6 - - - - 10 - - 16.0 1026.7 0.0
 
Date/Time
EST
Wind Sea
Height
m
Swell Vis
km
Cloud Weather Temp
°C
Press
hPa
Rain since
9am
mm
Dir  Spd
kts
Gust
kts
Height
m
Period
s
Dir
21/11:30pm NW 6 7 - - - - 10 - - 16.0 1026.8 0.0
21/11:00pm NW 7 9 - - - - 10 - - 17.0 1026.9 0.0
21/10:30pm NW 6 9 - - - - 10 - - 17.5 1026.8 0.0
21/10:00pm WNW 7 8 - - - - 10 - - 16.9 1026.7 0.0
21/09:30pm NW 7 7 - - - - 10 - - 16.4 1026.9 0.0
21/09:00pm NW 7 8 - - - - 10 - - 16.6 1026.9 0.0
21/08:30pm NW 5 6 - - - - 10 - - 16.3 1026.7 0.0
21/08:00pm WNW 5 6 - - - - 10 Partly cloudy - 16.7 1026.5 0.0
21/07:30pm WNW 5 6 - - - - 10 - - 16.9 1026.4 0.0
21/07:00pm NW 5 6 - - - - 10 - - 16.9 1026.0 0.0
21/06:30pm N 5 6 - - - - 10 - - 17.8 1025.7 0.0
21/06:00pm N 6 7 - - - - 10 - - 19.5 1025.4 0.0
21/05:30pm NNE 6 8 - - - - 10 - - 20.2 1025.1 0.0
21/05:00pm NNE 7 8 - - - - 10 - - 21.1 1024.8 0.0
21/04:30pm NNE 8 10 - - - - 10 - - 21.7 1024.6 0.0
21/04:00pm NNE 9 12 - - - - 10 - - 22.4 1024.3 0.0
21/03:30pm NE 8 11 - - - - 10 - - 23.2 1024.1 0.0
21/03:00pm NE 9 12 - - - - 10 - - 23.4 1024.0 0.0
21/02:30pm NE 10 13 - - - - 10 - - 23.7 1024.1 0.0
21/02:00pm ENE 10 13 - - - - 10 - - 24.0 1024.2 0.0

Other formats

Comma delimited format used in spreadsheet applications
http://www.bom.gov.au/fwo/IDN60701/IDN60701.95729.axf

JavaScript Object Notation format (JSON) in row-major order
http://www.bom.gov.au/fwo/IDN60701/IDN60701.95729.json

Data quality

Most of these data are generated automatically and are frequently updated. Quality checks on data are not normally performed. It is possible for incorrect values to appear. Refer to information at About Latest Weather Observations and please check the disclaimer before using these data.